Terminal Aerodrome Forecast
Issued by NWS

Home | Current Version | Previous Version | Text Only | Print | Product List | Glossary On
Versions: 1 2 3 4 5 6 7 8 9 10 11 12 13 14 15 16
000
FTUS44 KCRP 221739
TAFLRD
TAF
KLRD 221739Z 2218/2318 03010KT P6SM SCT200
     FM230600 11008KT P6SM BKN200=

USA.gov is the U.S. government's official web portal to all federal, state and local government web resources and services.